Denver, CO (80219)

5:12 PM MDT on July 23, 2016 (GMT -0600)
APRSWXNET | | Change Station

Elev 5419 ft 39.69 °N, 105.04 °W | Updated 52 minutes ago

Mostly Cloudy
Mostly Cloudy
95 °F
Feels Like 91 °F
N
2
Wind Variable Wind from NNE
Gusts 0.0 mph

Today
High -- | Low -- °F
--% Chance of Precip.
Yesterday
High -- | Low -- °F
Precip. -- in
Pressure 29.82 in
Visibility 10.0 miles
Clouds Scattered Clouds 12000 ft
Mostly Cloudy 20000 ft
Heat Index 91 °F
Dew Point 42 °F
Humidity 16%
Rainfall in
Snow Depth Not available.
5:51 AM 8:21 PM
Waning Gibbous, 82% visible
METAR KAPA 232253Z 18007KT 10SM SCT120 BKN200 33/01 A3008 RMK AO2 SLP097 T03330011
Pressure 29.82 in
Visibility 10.0 miles
Clouds Scattered Clouds 12000 ft
Mostly Cloudy 20000 ft
Heat Index 91 °F
Dew Point 42 °F
Humidity 16%
Rainfall in
Snow Depth Not available.
5:51 AM 8:21 PM
Waning Gibbous, 82% visible
METAR KAPA 232253Z 18007KT 10SM SCT120 BKN200 33/01 A3008 RMK AO2 SLP097 T03330011

10-Day Weather Forecast

Almanac

Astronomy

Jul. 23, 2016 Rise Set
Actual Time
Civil Twilight
Nautical Twilight
Astronomical Twilight
Moon
Length of Visible Light
Length of Day
Tomorrow will be .
, % of the Moon is Illuminated

Today's Extremes

State Highs State Lows

Community

WunderPhotos

Upload Photos

1,926,970 photos uploaded!

WunderBlog® & News

Nearby

Air Quality

  Air Quality AQ Index Pollutant
Not available.

Snow Depth

Station Depth Elevation

Earthquake Activity

City Distance Mag. Time & Date
Minimum magnitude displayed is 2.5.

Coastal Water Temperatures

Place Temperature

Stations

Nearby Weather Stations

Station Location Temp. Windchill Dew Point Humidity Wind Precip. Elev Updated Type
                   

Watches & Warnings

There are currently no watches in effect.